createdAt,value
2023-03-16T00:43:10.644Z,10913.00
2023-03-16T00:44:10.768Z,10840.00
2023-03-16T00:45:10.874Z,10485.00
2023-03-16T00:46:11.005Z,10212.00
2023-03-16T00:47:11.111Z,10005.00
2023-03-16T00:49:11.427Z,9454.00
2023-03-16T00:50:11.573Z,9241.00
2023-03-16T00:51:11.718Z,9071.00
2023-03-16T01:50:20.734Z,6830.00
2023-03-16T01:51:20.987Z,7125.00
2023-03-16T01:52:21.089Z,7456.00
2023-03-16T01:53:21.254Z,7796.00
2023-03-16T01:54:21.379Z,7892.00
2023-03-16T01:55:21.514Z,7821.00
2023-03-16T01:56:21.684Z,7649.00
2023-03-16T01:57:21.876Z,7526.00
2023-03-16T01:58:21.976Z,7383.00
2023-03-16T01:59:22.106Z,7202.00
2023-03-16T02:00:22.259Z,7091.00
2023-03-16T02:01:22.499Z,7029.00
2023-03-16T02:02:22.599Z,6911.00
2023-03-16T02:03:22.756Z,6745.00
2023-03-16T02:04:23.032Z,6608.00
2023-03-16T02:05:23.101Z,6444.00
2023-03-16T02:06:23.344Z,6339.00
2023-03-16T03:45:40.811Z,7788.00
2023-03-16T03:46:41.005Z,7695.00
2023-03-16T03:47:41.052Z,7723.00
2023-03-16T03:48:41.216Z,7597.00
2023-03-16T03:49:41.360Z,7790.00
2023-03-16T03:50:41.460Z,8165.00
2023-03-16T03:51:41.564Z,8264.00
2023-03-16T03:52:41.656Z,8068.00
2023-03-16T03:53:41.778Z,7998.00
2023-03-16T03:54:41.925Z,7593.00
2023-03-16T03:55:42.059Z,7094.00
2023-03-16T03:56:42.206Z,7035.00
2023-03-16T03:57:42.352Z,7757.00
2023-03-16T03:58:42.500Z,8468.00
2023-03-16T03:59:42.656Z,8604.00
2023-03-16T04:00:42.769Z,8768.00
2023-03-16T04:01:42.907Z,8988.00
2023-03-16T04:02:43.204Z,8981.00
2023-03-16T04:03:45.172Z,9157.00
2023-03-16T04:04:43.227Z,9325.00
2023-03-16T04:05:43.328Z,9570.00
2023-03-16T04:06:43.456Z,9349.00
2023-03-16T04:07:43.625Z,8908.00
2023-03-16T04:08:43.780Z,8559.00
2023-03-16T04:09:43.979Z,8341.00
2023-03-16T04:10:44.108Z,8025.00
2023-03-16T04:11:44.236Z,7819.00
2023-03-16T04:12:44.374Z,7483.00
2023-03-16T04:13:44.520Z,7402.00
2023-03-16T04:14:44.670Z,7290.00
2023-03-16T04:15:44.815Z,7232.00
2023-03-16T04:16:45.015Z,7220.00
2023-03-16T04:55:50.628Z,10005.00
2023-03-16T04:56:50.748Z,9470.00
2023-03-16T04:57:50.901Z,9055.00
2023-03-16T06:01:00.752Z,10724.00
2023-03-16T06:02:00.901Z,10600.00
2023-03-16T06:03:01.084Z,10172.00
2023-03-16T06:04:01.295Z,9758.00
2023-03-16T06:05:01.389Z,9575.00
2023-03-16T06:06:01.562Z,9506.00
2023-03-16T06:07:01.716Z,9480.00
2023-03-16T06:08:01.864Z,9404.00
2023-03-16T06:09:02.027Z,9495.00
2023-03-16T06:10:02.172Z,9528.00
2023-03-16T06:42:07.230Z,14570.00
2023-03-16T07:02:10.671Z,12984.00
2023-03-16T07:03:10.814Z,13193.00
2023-03-16T07:04:11.008Z,13202.00
2023-03-16T07:05:11.110Z,13218.00
2023-03-16T07:06:11.250Z,12989.00
2023-03-16T07:07:11.419Z,12618.00
2023-03-16T07:08:11.562Z,12255.00
2023-03-16T07:09:11.715Z,11890.00
2023-03-16T07:10:11.872Z,11550.00
2023-03-16T07:11:12.092Z,11376.00
2023-03-16T07:12:12.170Z,11211.00
2023-03-16T07:13:12.302Z,11025.00
2023-03-16T07:14:12.450Z,10862.00
2023-03-16T07:15:12.605Z,10633.00
2023-03-16T07:16:12.804Z,10389.00
2023-03-16T07:17:12.942Z,10206.00
2023-03-16T07:18:13.108Z,10183.00
2023-03-16T07:19:13.288Z,9884.00
2023-03-16T07:20:13.439Z,9046.00
2023-03-16T07:21:13.627Z,8430.00
2023-03-16T07:22:13.696Z,7793.00
2023-03-16T07:23:13.895Z,7512.00
2023-03-16T07:24:14.564Z,7362.00
2023-03-16T07:25:14.171Z,6897.00
2023-03-16T07:26:14.259Z,6571.00
2023-03-16T07:27:14.417Z,6315.00
2023-03-16T07:28:14.524Z,6206.00
2023-03-16T07:29:14.668Z,6089.00
2023-03-16T07:30:14.775Z,5943.00
2023-03-16T07:31:15.026Z,6055.00
2023-03-16T07:32:15.030Z,6212.00
2023-03-16T07:33:15.177Z,6159.00
2023-03-16T07:34:15.255Z,6002.00
2023-03-16T07:35:15.361Z,6279.00
2023-03-16T07:36:15.550Z,6074.00
2023-03-16T07:37:17.133Z,5967.00
2023-03-16T07:38:15.789Z,5888.00
2023-03-16T07:39:15.906Z,5255.00
2023-03-16T07:40:16.653Z,4867.00
2023-03-16T07:41:16.170Z,4911.00
2023-03-16T07:42:16.282Z,4936.00
2023-03-16T07:43:16.389Z,4901.00
2023-03-16T07:44:16.468Z,4489.00
2023-03-16T07:45:16.555Z,4121.00
2023-03-16T07:46:16.765Z,3645.00
2023-03-16T07:47:16.810Z,3119.00
2023-03-16T07:48:16.919Z,2728.00
2023-03-16T07:49:17.028Z,2497.00
2023-03-16T07:50:17.166Z,2382.00
2023-03-16T07:52:17.448Z,1917.00
2023-03-16T08:12:20.614Z,500.00
2023-03-16T10:24:30.783Z,400.00
2023-03-16T10:25:31.100Z,400.00
2023-03-16T10:26:31.127Z,400.00
2023-03-16T10:27:31.290Z,400.00
2023-03-16T10:28:31.481Z,400.00
2023-03-16T10:29:31.657Z,400.00
2023-03-16T10:30:31.945Z,400.00
2023-03-16T10:31:32.038Z,438.00
2023-03-16T10:32:32.313Z,609.00
2023-03-16T10:33:32.541Z,1431.00
2023-03-16T10:34:32.726Z,1994.00
2023-03-16T10:35:32.881Z,2471.00
2023-03-16T10:36:32.887Z,2483.00
2023-03-16T10:37:32.838Z,2548.00
2023-03-16T10:38:32.834Z,2719.00
2023-03-16T10:39:32.816Z,2854.00
2023-03-16T10:40:32.795Z,3281.00
2023-03-16T10:41:32.784Z,3052.00
2023-03-16T10:42:32.778Z,2827.00
2023-03-16T10:43:32.758Z,2422.00
2023-03-16T10:44:32.738Z,2061.00
2023-03-16T10:45:32.807Z,1784.00
2023-03-16T10:46:32.923Z,1509.00
2023-03-16T10:47:32.753Z,1324.00
2023-03-16T10:48:34.070Z,1307.00
2023-03-16T10:49:34.252Z,1176.00
2023-03-16T10:50:32.693Z,1154.00
2023-03-16T10:51:32.698Z,1334.00
2023-03-16T10:52:32.660Z,1975.00
2023-03-16T10:53:32.665Z,2658.00
2023-03-16T10:54:33.614Z,2360.00
2023-03-16T10:55:32.665Z,2205.00
2023-03-16T10:56:32.639Z,1964.00
2023-03-16T10:57:32.619Z,2147.00
2023-03-16T10:58:32.603Z,2207.00
2023-03-16T10:59:32.593Z,1879.00
2023-03-16T11:00:32.582Z,1486.00
2023-03-16T11:01:32.702Z,1197.00
2023-03-16T11:02:32.530Z,896.00
2023-03-16T11:03:32.507Z,1063.00
2023-03-16T11:04:32.510Z,1414.00
2023-03-16T11:05:32.479Z,1428.00
2023-03-16T11:06:32.463Z,1253.00
2023-03-16T11:07:32.468Z,1293.00
2023-03-16T11:08:32.367Z,1592.00
2023-03-16T11:09:32.331Z,1557.00
2023-03-16T11:10:33.175Z,1582.00
2023-03-16T11:11:32.251Z,1758.00
2023-03-16T11:12:32.273Z,1830.00
2023-03-16T11:13:32.304Z,1679.00
2023-03-16T11:14:32.317Z,1363.00
2023-03-16T11:15:32.602Z,1076.00
2023-03-16T11:16:32.442Z,858.00
2023-03-16T11:17:32.408Z,663.00
2023-03-16T11:18:32.422Z,607.00
2023-03-16T11:19:32.443Z,569.00
2023-03-16T11:20:32.484Z,678.00
2023-03-16T11:21:32.505Z,949.00
2023-03-16T11:22:32.528Z,709.00
2023-03-16T11:23:32.573Z,634.00
2023-03-16T11:24:32.586Z,636.00
2023-03-16T11:25:32.713Z,636.00
2023-03-16T11:26:32.863Z,619.00
2023-03-16T11:27:33.017Z,608.00
2023-03-16T11:28:34.136Z,557.00
2023-03-16T11:29:33.194Z,518.00
2023-03-16T11:30:34.031Z,522.00
2023-03-16T11:31:33.267Z,567.00
2023-03-16T11:32:33.279Z,568.00
2023-03-16T11:33:33.211Z,580.00
2023-03-16T11:34:33.194Z,590.00
2023-03-16T11:35:33.231Z,578.00
2023-03-16T11:36:33.208Z,547.00
2023-03-16T11:37:33.184Z,514.00
2023-03-16T11:38:33.107Z,456.00
2023-03-16T11:39:33.094Z,501.00
2023-03-16T11:40:33.062Z,515.00
2023-03-16T11:41:32.999Z,547.00
2023-03-16T11:42:32.993Z,542.00
2023-03-16T11:43:32.989Z,530.00
2023-03-16T11:44:32.963Z,509.00
2023-03-16T11:46:32.923Z,500.00
2023-03-16T11:47:32.876Z,503.00
2023-03-16T11:48:32.853Z,519.00
2023-03-16T11:49:32.847Z,518.00
2023-03-16T12:17:31.797Z,2433.00
2023-03-16T12:19:31.652Z,3596.00
2023-03-16T12:20:31.576Z,4170.00
2023-03-16T12:21:31.505Z,4753.00
2023-03-16T12:22:31.424Z,5267.00
2023-03-16T12:23:31.345Z,5561.00
2023-03-16T12:24:31.260Z,5674.00
2023-03-16T12:25:31.411Z,5803.00
2023-03-16T12:26:31.112Z,5685.00
2023-03-16T12:27:31.036Z,5801.00
2023-03-16T12:28:30.961Z,6035.00
2023-03-16T12:29:32.771Z,6288.00
2023-03-16T12:30:30.892Z,6530.00
2023-03-16T12:31:30.809Z,6745.00
2023-03-16T12:32:30.674Z,6947.00
2023-03-16T12:57:30.689Z,9155.00
2023-03-16T12:58:30.841Z,9371.00
2023-03-16T12:59:31.027Z,9550.00
2023-03-16T13:00:31.171Z,9786.00
2023-03-16T13:01:31.373Z,10030.00
2023-03-16T13:02:31.469Z,10007.00
2023-03-16T13:03:31.609Z,9815.00
2023-03-16T13:04:31.826Z,9957.00
2023-03-16T13:05:31.840Z,10156.00
2023-03-16T13:07:32.057Z,10728.00
2023-03-16T13:08:31.978Z,10952.00
2023-03-16T13:09:31.919Z,11223.00
2023-03-16T13:10:31.821Z,11890.00
2023-03-16T13:11:31.735Z,11946.00
2023-03-16T13:12:31.661Z,11366.00
2023-03-16T13:13:31.752Z,10849.00
2023-03-16T13:14:31.537Z,10723.00
2023-03-16T13:15:31.459Z,10844.00
2023-03-16T13:16:31.468Z,10926.00
2023-03-16T13:17:31.315Z,10981.00
2023-03-16T13:18:31.150Z,11122.00
2023-03-16T13:19:31.043Z,11192.00
2023-03-16T13:20:32.179Z,11225.00
2023-03-16T13:21:30.826Z,10889.00
2023-03-16T13:22:30.730Z,10701.00
2023-03-16T13:23:30.650Z,11004.00
2023-03-16T13:32:30.651Z,12103.00
2023-03-16T13:33:30.770Z,12035.00
2023-03-16T13:34:30.890Z,12337.00
2023-03-16T13:35:31.039Z,12446.00
2023-03-16T13:36:31.133Z,12490.00
2023-03-16T13:37:31.268Z,12555.00
2023-03-16T13:40:31.569Z,12124.00
2023-03-16T13:46:31.714Z,11951.00
2023-03-16T13:47:31.606Z,11541.00
2023-03-16T13:48:31.536Z,11560.00
2023-03-16T13:49:31.466Z,11502.00
2023-03-16T13:50:31.554Z,11550.00
2023-03-16T13:51:31.288Z,11504.00
2023-03-16T13:52:31.220Z,11339.00
2023-03-16T13:53:31.143Z,11462.00
2023-03-16T13:54:31.358Z,11471.00
2023-03-16T13:55:31.463Z,11579.00
2023-03-16T13:56:31.620Z,11893.00
2023-03-16T13:57:31.747Z,12089.00
2023-03-16T13:58:33.657Z,11906.00
2023-03-16T13:59:31.756Z,11753.00
2023-03-16T14:00:31.722Z,11694.00
2023-03-16T14:01:31.541Z,11874.00
2023-03-16T14:02:31.388Z,11944.00
2023-03-16T14:03:31.212Z,12182.00
2023-03-16T14:04:31.079Z,12144.00
2023-03-16T14:05:31.338Z,12157.00
2023-03-16T14:06:30.830Z,11961.00
2023-03-16T14:07:30.668Z,11964.00
2023-03-16T15:11:30.704Z,13202.00
2023-03-16T15:12:30.857Z,13291.00
2023-03-16T15:13:30.982Z,13311.00
2023-03-16T15:14:31.138Z,13377.00
2023-03-16T15:15:31.274Z,13559.00
2023-03-16T15:16:31.474Z,13490.00
2023-03-16T15:17:31.580Z,13271.00
2023-03-16T15:18:31.723Z,13022.00
2023-03-16T15:19:31.888Z,12847.00
2023-03-16T15:21:32.163Z,13145.00
2023-03-16T15:22:32.376Z,13236.00
2023-03-16T16:17:53.474Z,13185.00
2023-03-16T16:19:40.648Z,13310.00
2023-03-16T18:37:40.817Z,16829.00
2023-03-16T18:38:41.032Z,16660.00
2023-03-16T18:39:41.235Z,16627.00
2023-03-16T18:40:41.518Z,16800.00
2023-03-16T18:41:41.646Z,16839.00
2023-03-16T18:42:41.856Z,16967.00
2023-03-16T18:43:42.065Z,16850.00
2023-03-16T19:26:50.706Z,16513.00
2023-03-16T19:27:51.006Z,16550.00
2023-03-16T19:28:51.098Z,16637.00
2023-03-16T19:29:52.351Z,16748.00
2023-03-16T19:30:51.394Z,16850.00
2023-03-16T19:31:51.497Z,16796.00
2023-03-16T19:32:51.458Z,16711.00
2023-03-16T19:33:51.390Z,16519.00
2023-03-16T19:34:51.481Z,16492.00
2023-03-16T19:35:52.576Z,16466.00
2023-03-16T19:36:51.510Z,16595.00
2023-03-16T19:37:51.554Z,16742.00
2023-03-16T19:38:51.667Z,16736.00
2023-03-16T19:39:51.763Z,16554.00
2023-03-16T19:40:51.865Z,16501.00
2023-03-16T19:41:51.976Z,16523.00
2023-03-16T20:48:00.715Z,16535.00
2023-03-16T20:49:00.945Z,16580.00
2023-03-16T20:50:01.195Z,16590.00
2023-03-16T20:51:01.457Z,16586.00
2023-03-16T20:52:01.667Z,16792.00
2023-03-16T20:53:01.911Z,16989.00
2023-03-16T20:54:02.146Z,17038.00
2023-03-16T20:55:02.378Z,16974.00
2023-03-16T20:56:02.612Z,16830.00
2023-03-16T20:57:02.854Z,16811.00
2023-03-16T20:58:03.091Z,16802.00
2023-03-16T20:59:03.330Z,16761.00
2023-03-16T21:00:03.566Z,16698.00
2023-03-16T21:01:03.936Z,16768.00
2023-03-16T21:02:03.988Z,16851.00
2023-03-16T21:03:04.138Z,16905.00
2023-03-16T21:04:04.399Z,17035.00
2023-03-16T21:05:04.613Z,17192.00
2023-03-16T21:06:04.802Z,17217.00
2023-03-16T21:09:05.416Z,17019.00
2023-03-16T22:24:21.080Z,14791.00
2023-03-16T22:25:21.190Z,14909.00
2023-03-16T22:26:21.430Z,15089.00
2023-03-16T22:27:21.581Z,14959.00
2023-03-16T22:28:21.703Z,14836.00
2023-03-16T22:29:21.919Z,14795.00
2023-03-16T22:30:22.135Z,14753.00
2023-03-16T22:31:22.447Z,14772.00
2023-03-16T22:32:22.524Z,14678.00
2023-03-16T22:33:22.795Z,14178.00
2023-03-16T22:34:22.977Z,13988.00
2023-03-16T22:35:23.178Z,14059.00
2023-03-16T22:36:23.385Z,14057.00
2023-03-16T22:37:23.479Z,14140.00
2023-03-16T22:38:23.678Z,14173.00
2023-03-16T22:39:23.900Z,14158.00
2023-03-16T22:40:24.085Z,13952.00
2023-03-16T22:41:24.272Z,13737.00
2023-03-16T22:42:24.503Z,13732.00
2023-03-16T22:43:24.794Z,13702.00
2023-03-16T22:44:25.017Z,13665.00
2023-03-16T22:45:25.212Z,13665.00
2023-03-16T22:46:25.347Z,13596.00
2023-03-16T22:47:25.642Z,13487.00
2023-03-16T22:48:25.760Z,13373.00
2023-03-16T22:49:26.030Z,13407.00
2023-03-16T22:50:26.185Z,13483.00
2023-03-16T22:51:26.351Z,13278.00
2023-03-16T22:52:26.531Z,13347.00
2023-03-16T22:53:26.813Z,13401.00
2023-03-16T22:54:27.021Z,13335.00
2023-03-16T22:55:27.431Z,13362.00
2023-03-16T22:56:27.349Z,13294.00
2023-03-16T22:57:27.406Z,13251.00
2023-03-16T22:58:27.501Z,13294.00
2023-03-16T22:59:27.558Z,13316.00
2023-03-16T23:00:27.627Z,13380.00
2023-03-16T23:01:27.745Z,13250.00
2023-03-16T23:02:27.745Z,13176.00
2023-03-16T23:03:27.811Z,13241.00
2023-03-16T23:04:27.946Z,13258.00
2023-03-16T23:06:28.019Z,13106.00
2023-03-16T23:07:28.107Z,12795.00
2023-03-16T23:08:28.207Z,12529.00
2023-03-16T23:22:30.719Z,7804.00
2023-03-16T23:23:30.996Z,7422.00
2023-03-16T23:24:31.225Z,7061.00
2023-03-16T23:25:31.472Z,6883.00
2023-03-16T23:26:31.708Z,7798.00
2023-03-16T23:27:31.797Z,8951.00
2023-03-16T23:28:32.097Z,9772.00
2023-03-16T23:29:32.261Z,10419.00
2023-03-16T23:30:33.013Z,10840.00
2023-03-16T23:31:32.627Z,11187.00
2023-03-16T23:32:32.745Z,11386.00
2023-03-16T23:33:32.792Z,11664.00
2023-03-16T23:34:32.890Z,11888.00
2023-03-16T23:35:33.037Z,11920.00
2023-03-16T23:36:33.005Z,12023.00
2023-03-16T23:37:33.052Z,11959.00
2023-03-16T23:38:33.097Z,11980.00
2023-03-16T23:39:33.189Z,11941.00
2023-03-16T23:40:33.282Z,12045.00
2023-03-16T23:41:33.369Z,12147.00
2023-03-16T23:42:33.443Z,12153.00
2023-03-16T23:43:33.502Z,12180.00
2023-03-16T23:44:33.565Z,12216.00
2023-03-16T23:45:33.628Z,11857.00
2023-03-16T23:46:33.675Z,11640.00
2023-03-16T23:47:33.727Z,11361.00
2023-03-16T23:48:33.828Z,11186.00
2023-03-16T23:49:33.904Z,11280.00
2023-03-16T23:50:33.997Z,11023.00
2023-03-16T23:51:34.074Z,10492.00
2023-03-16T23:52:34.165Z,10111.00
2023-03-16T23:53:34.261Z,10176.00
2023-03-16T23:54:34.350Z,10665.00
2023-03-16T23:55:34.455Z,10902.00
2023-03-16T23:56:34.545Z,11307.00
2023-03-16T23:57:34.632Z,11572.00
2023-03-16T23:58:34.730Z,11826.00
2023-03-16T23:59:34.807Z,11954.00
